createdAt,value
2018-07-04T00:00:19.892Z,16.68
2018-07-04T00:01:28.793Z,16.69
2018-07-04T00:02:37.433Z,16.68
2018-07-04T00:03:46.083Z,16.65
2018-07-04T00:04:54.738Z,16.55
2018-07-04T00:06:03.375Z,16.58
2018-07-04T00:07:12.281Z,16.54
2018-07-04T00:08:20.930Z,16.44
2018-07-04T00:09:29.578Z,16.43
2018-07-04T00:10:38.220Z,16.37
2018-07-04T00:11:46.869Z,16.44
2018-07-04T00:12:55.513Z,16.36
2018-07-04T00:14:04.166Z,16.41
2018-07-04T00:15:12.808Z,16.31
2018-07-04T00:16:21.453Z,16.25
2018-07-04T00:17:30.097Z,16.26
2018-07-04T00:18:39.007Z,16.28
2018-07-04T00:19:47.657Z,16.26
2018-07-04T00:20:56.304Z,16.26
2018-07-04T00:22:05.210Z,16.12
2018-07-04T00:23:13.853Z,16.16
2018-07-04T00:24:22.502Z,16.13
2018-07-04T00:25:31.149Z,16.1
2018-07-04T00:26:39.795Z,16.1
2018-07-04T00:27:48.437Z,16.09
2018-07-04T00:28:57.087Z,16.1
2018-07-04T00:30:06.261Z,16.08
2018-07-04T00:31:14.909Z,16.02
2018-07-04T00:32:23.552Z,15.99
2018-07-04T00:33:32.203Z,16
2018-07-04T00:34:40.844Z,16
2018-07-04T00:35:49.492Z,16.05
2018-07-04T00:36:58.406Z,16.02
2018-07-04T00:38:07.049Z,15.96
2018-07-04T00:39:15.696Z,15.96
2018-07-04T00:40:24.341Z,15.96
2018-07-04T00:41:32.993Z,15.96
2018-07-04T00:42:41.633Z,15.87
2018-07-04T00:43:50.281Z,15.87
2018-07-04T00:44:59.192Z,15.88
2018-07-04T00:46:07.829Z,15.87
2018-07-04T00:47:16.753Z,15.9
2018-07-04T00:48:25.397Z,15.78
2018-07-04T00:49:34.046Z,15.8
2018-07-04T00:50:42.681Z,15.81
2018-07-04T00:51:51.328Z,15.76
2018-07-04T00:52:59.977Z,15.69
2018-07-04T00:54:08.626Z,15.69
2018-07-04T00:55:17.274Z,15.72
2018-07-04T00:56:25.911Z,15.73
2018-07-04T00:57:34.821Z,15.67
2018-07-04T00:58:43.461Z,15.63
2018-07-04T00:59:52.116Z,15.63
2018-07-04T01:01:00.754Z,15.6
2018-07-04T01:02:09.404Z,15.55
2018-07-04T01:03:18.308Z,15.65
2018-07-04T01:04:26.965Z,15.59
2018-07-04T01:05:35.603Z,15.57
2018-07-04T01:06:44.250Z,15.52
2018-07-04T01:07:52.890Z,15.5
2018-07-04T01:09:01.545Z,15.48
2018-07-04T01:10:10.190Z,15.47
2018-07-04T01:11:18.832Z,15.48
2018-07-04T01:12:27.475Z,15.57
2018-07-04T01:13:36.121Z,15.39
2018-07-04T01:14:44.779Z,15.54
2018-07-04T01:15:53.420Z,15.47
2018-07-04T01:17:02.069Z,15.39
2018-07-04T01:18:10.705Z,15.37
2018-07-04T01:19:19.362Z,15.44
2018-07-04T01:20:28.006Z,15.37
2018-07-04T01:21:37.451Z,15.35
2018-07-04T01:22:46.090Z,15.32
2018-07-04T01:23:54.744Z,15.33
2018-07-04T01:25:03.385Z,15.35
2018-07-04T01:26:12.033Z,15.32
2018-07-04T01:27:20.673Z,15.3
2018-07-04T01:28:29.854Z,15.23
2018-07-04T01:29:38.501Z,15.23
2018-07-04T01:30:47.418Z,15.22
2018-07-04T01:31:56.066Z,15.17
2018-07-04T01:33:04.962Z,15.1
2018-07-04T01:34:13.616Z,15.18
2018-07-04T01:35:22.252Z,15.11
2018-07-04T01:36:30.910Z,15.22
2018-07-04T01:37:39.815Z,15.19
2018-07-04T01:38:48.467Z,15.14
2018-07-04T01:39:57.368Z,15.08
2018-07-04T01:41:06.023Z,15.12
2018-07-04T01:42:14.658Z,15.02
2018-07-04T01:43:23.306Z,15.07
2018-07-04T01:44:31.949Z,15.1
2018-07-04T01:45:40.602Z,15.04
2018-07-04T01:46:49.240Z,14.99
2018-07-04T01:47:57.886Z,15
2018-07-04T01:49:06.534Z,15.04
2018-07-04T01:50:15.178Z,15.04
2018-07-04T01:51:23.828Z,14.97
2018-07-04T01:52:32.473Z,14.99
2018-07-04T01:53:41.117Z,14.97
2018-07-04T01:54:49.756Z,15
2018-07-04T01:55:58.406Z,14.93
2018-07-04T01:57:07.052Z,14.97
2018-07-04T01:58:15.957Z,14.89
2018-07-04T01:59:24.595Z,15.05
2018-07-04T02:00:33.246Z,14.93
2018-07-04T02:01:41.891Z,14.9
2018-07-04T02:02:50.541Z,14.87
2018-07-04T02:03:59.185Z,14.9
2018-07-04T02:05:07.830Z,14.87
2018-07-04T02:06:16.476Z,14.82
2018-07-04T02:07:25.121Z,14.87
2018-07-04T02:08:33.770Z,14.89
2018-07-04T02:09:42.413Z,14.82
2018-07-04T02:10:51.325Z,14.78
2018-07-04T02:12:00.229Z,14.82
2018-07-04T02:13:08.879Z,14.77
2018-07-04T02:14:17.518Z,14.73
2018-07-04T02:15:26.163Z,14.7
2018-07-04T02:16:34.808Z,14.71
2018-07-04T02:17:43.462Z,14.78
2018-07-04T02:18:52.106Z,14.74
2018-07-04T02:20:00.757Z,14.62
2018-07-04T02:21:09.398Z,14.66
2018-07-04T02:22:18.049Z,14.68
2018-07-04T02:23:26.692Z,14.67
2018-07-04T02:24:35.335Z,14.66
2018-07-04T02:25:43.978Z,14.63
2018-07-04T02:26:52.619Z,14.62
2018-07-04T02:28:01.270Z,14.66
2018-07-04T02:29:09.916Z,14.59
2018-07-04T02:30:18.841Z,14.61
2018-07-04T02:31:27.743Z,14.66
2018-07-04T02:32:36.401Z,14.58
2018-07-04T02:33:45.051Z,14.59
2018-07-04T02:34:53.967Z,14.52
2018-07-04T02:36:02.607Z,14.61
2018-07-04T02:37:11.263Z,14.55
2018-07-04T02:38:19.956Z,14.55
2018-07-04T02:39:28.559Z,14.45
2018-07-04T02:40:37.205Z,14.33
2018-07-04T02:41:45.850Z,14.44
2018-07-04T02:42:54.500Z,14.43
2018-07-04T02:44:03.416Z,14.4
2018-07-04T02:45:12.067Z,14.51
2018-07-04T02:46:20.716Z,14.4
2018-07-04T02:47:29.378Z,14.41
2018-07-04T02:48:38.016Z,14.48
2018-07-04T02:49:46.659Z,14.44
2018-07-04T02:50:55.309Z,14.36
2018-07-04T02:52:04.230Z,14.43
2018-07-04T02:53:13.403Z,14.38
2018-07-04T02:54:22.040Z,14.43
2018-07-04T02:55:30.690Z,14.33
2018-07-04T02:56:39.333Z,14.4
2018-07-04T02:57:48.521Z,14.45
2018-07-04T02:58:57.164Z,14.41
2018-07-04T03:00:06.077Z,14.44
2018-07-04T03:01:15.394Z,14.38
2018-07-04T03:02:24.300Z,14.37
2018-07-04T03:03:33.044Z,14.38
2018-07-04T03:04:42.019Z,14.43
2018-07-04T03:05:51.384Z,14.4
2018-07-04T03:07:00.128Z,14.38
2018-07-04T03:08:09.063Z,14.44
2018-07-04T03:09:17.972Z,14.48
2018-07-04T03:10:27.148Z,14.43
2018-07-04T03:11:35.794Z,14.43
2018-07-04T03:12:44.451Z,14.45
2018-07-04T03:13:53.098Z,14.45
2018-07-04T03:15:01.745Z,14.48
2018-07-04T03:16:10.390Z,14.44
2018-07-04T03:17:19.048Z,14.45
2018-07-04T03:18:27.973Z,14.41
2018-07-04T03:19:36.624Z,14.43
2018-07-04T03:20:45.267Z,14.43
2018-07-04T03:21:53.916Z,14.43
2018-07-04T03:23:02.573Z,14.45
2018-07-04T03:24:11.222Z,14.48
2018-07-04T03:25:20.390Z,14.49
2018-07-04T03:26:29.031Z,14.48
2018-07-04T03:27:37.683Z,14.59
2018-07-04T03:28:46.328Z,14.55
2018-07-04T03:29:55.238Z,14.55
2018-07-04T03:31:04.144Z,14.52
2018-07-04T03:32:13.087Z,14.55
2018-07-04T03:33:21.699Z,14.48
2018-07-04T03:34:30.350Z,14.55
2018-07-04T03:35:39.255Z,14.58
2018-07-04T03:36:47.905Z,14.56
2018-07-04T03:37:56.813Z,14.63
2018-07-04T03:39:05.464Z,14.52
2018-07-04T03:40:14.109Z,14.59
2018-07-04T03:41:22.744Z,14.62
2018-07-04T03:42:31.653Z,14.52
2018-07-04T03:43:40.551Z,14.59
2018-07-04T03:44:49.207Z,14.48
2018-07-04T03:45:58.367Z,14.45
2018-07-04T03:47:07.281Z,14.44
2018-07-04T03:48:15.919Z,14.51
2018-07-04T03:49:24.573Z,14.45
2018-07-04T03:50:33.209Z,14.44
2018-07-04T03:51:41.854Z,14.48
2018-07-04T03:52:50.757Z,14.37
2018-07-04T03:53:59.412Z,14.51
2018-07-04T03:55:08.078Z,14.51
2018-07-04T03:56:16.724Z,14.49
2018-07-04T03:57:25.368Z,14.49
2018-07-04T03:58:34.014Z,14.55
2018-07-04T03:59:42.667Z,14.52
2018-07-04T04:00:51.312Z,14.53
2018-07-04T04:01:59.959Z,14.52
2018-07-04T04:03:08.594Z,14.58
2018-07-04T04:04:17.245Z,14.66
2018-07-04T04:05:25.885Z,14.59
2018-07-04T04:06:34.541Z,14.68
2018-07-04T04:07:43.179Z,14.74
2018-07-04T04:08:51.830Z,14.7
2018-07-04T04:10:00.472Z,14.63
2018-07-04T04:11:09.121Z,14.71
2018-07-04T04:12:17.758Z,14.68
2018-07-04T04:13:26.665Z,14.58
2018-07-04T04:14:35.313Z,14.61
2018-07-04T04:15:43.961Z,14.58
2018-07-04T04:16:52.616Z,14.59
2018-07-04T04:18:01.254Z,14.58
2018-07-04T04:19:09.907Z,14.58
2018-07-04T04:20:18.546Z,14.51
2018-07-04T04:21:27.198Z,14.53
2018-07-04T04:22:36.098Z,14.45
2018-07-04T04:23:44.745Z,14.49
2018-07-04T04:24:53.654Z,14.56
2018-07-04T04:26:02.566Z,14.53
2018-07-04T04:27:11.285Z,14.55
2018-07-04T04:28:19.852Z,14.63
2018-07-04T04:29:28.494Z,14.7
2018-07-04T04:30:37.149Z,14.66
2018-07-04T04:31:45.791Z,14.63
2018-07-04T04:32:54.429Z,14.68
2018-07-04T04:34:03.073Z,14.68
2018-07-04T04:35:11.716Z,14.77
2018-07-04T04:36:20.420Z,14.71
2018-07-04T04:37:29.012Z,14.78
2018-07-04T04:38:37.660Z,14.77
2018-07-04T04:39:46.303Z,14.79
2018-07-04T04:40:55.216Z,14.87
2018-07-04T04:42:03.862Z,14.9
2018-07-04T04:43:12.767Z,14.9
2018-07-04T04:44:21.408Z,14.85
2018-07-04T04:45:30.319Z,14.9
2018-07-04T04:46:38.963Z,14.93
2018-07-04T04:47:47.613Z,15.05
2018-07-04T04:48:56.515Z,15.12
2018-07-04T04:50:05.163Z,15.23
2018-07-04T04:51:13.809Z,15.29
2018-07-04T04:52:22.462Z,15.35
2018-07-04T04:53:31.122Z,15.48
2018-07-04T04:54:39.765Z,15.37
2018-07-04T04:55:48.408Z,15.52
2018-07-04T04:56:57.055Z,15.62
2018-07-04T04:58:05.968Z,15.69
2018-07-04T04:59:14.608Z,15.75
2018-07-04T05:00:23.253Z,15.73
2018-07-04T05:01:31.908Z,15.83
2018-07-04T05:02:40.557Z,15.92
2018-07-04T05:03:49.198Z,15.96
2018-07-04T05:04:57.845Z,16.1
2018-07-04T05:06:06.489Z,16.05
2018-07-04T05:07:15.143Z,16.1
2018-07-04T05:08:23.784Z,16.21
2018-07-04T05:09:32.433Z,16.18
2018-07-04T05:10:41.074Z,16.26
2018-07-04T05:11:49.712Z,16.37
2018-07-04T05:12:58.363Z,16.29
2018-07-04T05:14:07.005Z,16.31
2018-07-04T05:15:15.657Z,16.36
2018-07-04T05:16:24.300Z,16.43
2018-07-04T05:17:32.965Z,16.29
2018-07-04T05:18:41.594Z,16.32
2018-07-04T05:19:50.242Z,16.43
2018-07-04T05:20:58.918Z,16.41
2018-07-04T05:22:07.533Z,16.49
2018-07-04T05:23:16.177Z,16.46
2018-07-04T05:24:24.825Z,16.57
2018-07-04T05:25:33.728Z,16.65
2018-07-04T05:26:42.380Z,16.62
2018-07-04T05:27:51.026Z,16.74
2018-07-04T05:28:59.675Z,16.72
2018-07-04T05:30:08.330Z,16.77
2018-07-04T05:31:16.968Z,16.82
2018-07-04T05:32:25.617Z,16.95
2018-07-04T05:33:34.259Z,17.05
2018-07-04T05:34:42.911Z,17.19
2018-07-04T05:35:51.816Z,17.22
2018-07-04T05:37:00.461Z,17.3
2018-07-04T05:38:09.108Z,17.47
2018-07-04T05:39:17.758Z,17.39
2018-07-04T05:40:26.399Z,17.52
2018-07-04T05:41:35.310Z,17.68
2018-07-04T05:42:43.954Z,17.75
2018-07-04T05:43:52.874Z,17.75
2018-07-04T05:45:01.542Z,17.82
2018-07-04T05:46:10.725Z,17.95
2018-07-04T05:47:19.369Z,17.94
2018-07-04T05:48:28.012Z,18.03
2018-07-04T05:49:36.668Z,18.12
2018-07-04T05:50:45.311Z,18.16
2018-07-04T05:51:53.961Z,18.33
2018-07-04T05:53:02.600Z,18.43
2018-07-04T05:54:11.516Z,18.37
2018-07-04T05:55:20.159Z,18.51
2018-07-04T05:56:28.813Z,18.6
2018-07-04T05:57:37.449Z,18.7
2018-07-04T05:58:46.105Z,18.6
2018-07-04T05:59:55.208Z,18.52
2018-07-04T06:01:03.657Z,18.55
2018-07-04T06:02:12.294Z,18.57
2018-07-04T06:03:20.944Z,18.49
2018-07-04T06:04:29.599Z,18.57
2018-07-04T06:05:38.247Z,18.57
2018-07-04T06:06:47.434Z,18.6
2018-07-04T06:07:56.072Z,18.49
2018-07-04T06:09:05.033Z,18.49
2018-07-04T06:10:13.952Z,18.58
2018-07-04T06:11:22.606Z,18.58
2018-07-04T06:12:31.244Z,18.63
2018-07-04T06:13:39.897Z,18.61
2018-07-04T06:14:48.541Z,18.63
2018-07-04T06:15:57.199Z,18.67
2018-07-04T06:17:05.837Z,18.71
2018-07-04T06:18:14.488Z,18.78
2018-07-04T06:19:23.134Z,18.74
2018-07-04T06:20:31.788Z,18.82
2018-07-04T06:21:40.433Z,18.7
2018-07-04T06:22:49.076Z,18.7
2018-07-04T06:23:57.722Z,18.71
2018-07-04T06:25:06.368Z,18.78
2018-07-04T06:26:15.025Z,18.85
2018-07-04T06:27:23.942Z,18.97
2018-07-04T06:28:32.599Z,18.98
2018-07-04T06:29:41.239Z,19.07
2018-07-04T06:30:50.165Z,19.05
2018-07-04T06:31:58.808Z,19.09
2018-07-04T06:33:07.726Z,19.19
2018-07-04T06:34:16.367Z,19.23
2018-07-04T06:35:25.022Z,19.37
2018-07-04T06:36:33.674Z,19.34
2018-07-04T06:37:42.316Z,19.45
2018-07-04T06:38:50.975Z,19.55
2018-07-04T06:39:59.621Z,19.47
2018-07-04T06:41:08.265Z,19.62
2018-07-04T06:42:17.178Z,19.64
2018-07-04T06:43:25.831Z,19.72
2018-07-04T06:44:34.489Z,19.78
2018-07-04T06:45:43.133Z,19.77
2018-07-04T06:46:51.788Z,19.71
2018-07-04T06:48:00.426Z,19.78
2018-07-04T06:49:09.130Z,19.75
2018-07-04T06:50:17.730Z,19.87
2018-07-04T06:51:26.383Z,19.89
2018-07-04T06:52:35.023Z,19.82
2018-07-04T06:53:43.681Z,19.87
2018-07-04T06:54:52.334Z,19.94
2018-07-04T06:56:00.991Z,19.92
2018-07-04T06:57:09.898Z,20.02
2018-07-04T06:58:18.551Z,20.02
2018-07-04T06:59:27.473Z,20.08
2018-07-04T07:00:36.394Z,20.12
2018-07-04T07:01:45.096Z,20.07
2018-07-04T07:02:53.685Z,20.22
2018-07-04T07:04:02.341Z,20.26
2018-07-04T07:05:10.988Z,20.33
2018-07-04T07:06:19.644Z,20.34
2018-07-04T07:07:28.284Z,20.44
2018-07-04T07:08:36.980Z,20.49
2018-07-04T07:09:45.953Z,20.42
2018-07-04T07:10:54.872Z,20.42
2018-07-04T07:12:03.511Z,20.49
2018-07-04T07:13:12.424Z,20.52
2018-07-04T07:14:21.093Z,20.49
2018-07-04T07:15:29.725Z,20.52
2018-07-04T07:16:38.371Z,20.67
2018-07-04T07:17:47.018Z,20.73
2018-07-04T07:18:55.663Z,20.74
2018-07-04T07:20:04.577Z,20.83
2018-07-04T07:21:13.603Z,20.8
2018-07-04T07:22:22.234Z,20.8
2018-07-04T07:23:31.150Z,20.85
2018-07-04T07:24:39.790Z,20.9
2018-07-04T07:25:48.448Z,20.93
2018-07-04T07:26:57.365Z,20.88
2018-07-04T07:28:06.025Z,20.9
2018-07-04T07:29:14.671Z,21.03
2018-07-04T07:30:23.332Z,21.11
2018-07-04T07:31:32.237Z,21.15
2018-07-04T07:32:40.888Z,21.26
2018-07-04T07:33:49.527Z,21.25
2018-07-04T07:34:58.485Z,21.25
2018-07-04T07:36:07.134Z,21.22
2018-07-04T07:37:15.784Z,21.3
2018-07-04T07:38:24.434Z,21.22
2018-07-04T07:39:33.078Z,21.32
2018-07-04T07:40:41.725Z,21.32
2018-07-04T07:41:50.419Z,21.38
2018-07-04T07:42:59.303Z,21.41
2018-07-04T07:44:07.946Z,21.43
2018-07-04T07:45:16.598Z,21.51
2018-07-04T07:46:25.251Z,21.65
2018-07-04T07:47:33.905Z,21.77
2018-07-04T07:48:42.561Z,21.84
2018-07-04T07:49:51.208Z,21.97
2018-07-04T07:50:59.855Z,22.08
2018-07-04T07:52:08.784Z,22.16
2018-07-04T07:53:17.430Z,22.28
2018-07-04T07:54:26.171Z,22.34
2018-07-04T07:55:34.727Z,22.56
2018-07-04T07:56:43.377Z,22.65
2018-07-04T07:57:52.302Z,22.74
2018-07-04T07:59:00.954Z,22.88
2018-07-04T08:00:09.606Z,22.98
2018-07-04T08:01:18.256Z,23.14
2018-07-04T08:02:26.914Z,23.18
2018-07-04T08:03:35.558Z,23.39
2018-07-04T08:04:44.211Z,23.34
2018-07-04T08:05:52.893Z,23.32
2018-07-04T08:07:01.508Z,23.39
2018-07-04T08:08:10.322Z,23.34
2018-07-04T08:09:18.978Z,23.25
2018-07-04T08:10:27.625Z,23.18
2018-07-04T08:11:36.543Z,23.26
2018-07-04T08:12:45.258Z,23.21
2018-07-04T08:13:54.381Z,23.32
2018-07-04T08:15:03.073Z,23.29
2018-07-04T08:16:11.983Z,23.18
2018-07-04T08:17:20.638Z,23.25
2018-07-04T08:18:29.287Z,23.21
2018-07-04T08:19:37.947Z,23.17
2018-07-04T08:20:46.597Z,23.07
2018-07-04T08:21:55.251Z,23.08
2018-07-04T08:23:03.902Z,23.04
2018-07-04T08:24:12.820Z,23.18
2018-07-04T08:25:21.468Z,23.11
2018-07-04T08:26:30.120Z,23.11
2018-07-04T08:27:38.772Z,23.13
2018-07-04T08:28:47.427Z,23.18
2018-07-04T08:29:56.074Z,23.17
2018-07-04T08:31:04.725Z,23.29
2018-07-04T08:32:13.374Z,23.18
2018-07-04T08:33:22.035Z,23.14
2018-07-04T08:34:30.682Z,23.14
2018-07-04T08:35:39.333Z,23.18
2018-07-04T08:36:47.985Z,23.17
2018-07-04T08:37:56.896Z,23.26
2018-07-04T08:39:05.554Z,23.18
2018-07-04T08:40:14.491Z,23.34
2018-07-04T08:41:23.144Z,23.45
2018-07-04T08:42:31.792Z,23.54
2018-07-04T08:43:40.448Z,23.64
2018-07-04T08:44:49.177Z,23.69
2018-07-04T08:45:57.755Z,23.69
2018-07-04T08:47:06.399Z,23.67
2018-07-04T08:48:15.054Z,23.64
2018-07-04T08:49:23.707Z,23.66
2018-07-04T08:50:32.382Z,23.76
2018-07-04T08:51:41.015Z,23.7
2018-07-04T08:52:49.690Z,23.85
2018-07-04T08:53:58.883Z,23.88
2018-07-04T08:55:07.540Z,23.94
2018-07-04T08:56:16.724Z,24.07
2018-07-04T08:57:25.373Z,24.1
2018-07-04T08:58:34.067Z,24.19
2018-07-04T08:59:42.680Z,24.22
2018-07-04T09:00:51.339Z,24.31
2018-07-04T09:01:59.981Z,24.37
2018-07-04T09:03:08.638Z,24.32
2018-07-04T09:04:17.290Z,24.26
2018-07-04T09:05:25.947Z,24.18
2018-07-04T09:06:34.596Z,24.28
2018-07-04T09:07:43.249Z,24.25
2018-07-04T09:08:51.902Z,24.21
2018-07-04T09:10:00.549Z,24.21
2018-07-04T09:11:09.207Z,24.24
2018-07-04T09:12:17.862Z,24.26
2018-07-04T09:13:26.522Z,24.26
2018-07-04T09:14:35.169Z,24.29
2018-07-04T09:15:43.825Z,24.46
2018-07-04T09:16:52.476Z,24.46
2018-07-04T09:18:01.131Z,24.44
2018-07-04T09:19:09.779Z,24.53
2018-07-04T09:20:18.435Z,24.71
2018-07-04T09:21:27.085Z,24.66
2018-07-04T09:22:35.740Z,24.71
2018-07-04T09:23:44.386Z,24.75
2018-07-04T09:24:53.045Z,24.85
2018-07-04T09:26:01.694Z,24.85
2018-07-04T09:27:10.605Z,24.81
2018-07-04T09:28:19.258Z,24.82
2018-07-04T09:29:27.907Z,24.86
2018-07-04T09:30:36.558Z,24.86
2018-07-04T09:31:45.474Z,24.88
2018-07-04T09:32:54.395Z,24.86
2018-07-04T09:34:03.040Z,24.99
2018-07-04T09:35:11.696Z,25.07
2018-07-04T09:36:20.348Z,25.18
2018-07-04T09:37:29.011Z,25.18
2018-07-04T09:38:37.656Z,25.33
2018-07-04T09:39:46.311Z,25.46
2018-07-04T09:40:54.960Z,25.68
2018-07-04T09:42:03.622Z,25.63
2018-07-04T09:43:12.273Z,25.67
2018-07-04T09:44:20.920Z,25.73
2018-07-04T09:45:29.563Z,25.73
2018-07-04T09:46:38.213Z,25.77
2018-07-04T09:47:46.973Z,25.73
2018-07-04T09:48:55.785Z,25.77
2018-07-04T09:50:04.452Z,25.71
2018-07-04T09:51:13.352Z,25.71
2018-07-04T09:52:22.014Z,25.71
2018-07-04T09:53:30.927Z,25.61
2018-07-04T09:54:39.585Z,25.63
2018-07-04T09:55:48.228Z,25.7
2018-07-04T09:56:56.889Z,25.71
2018-07-04T09:58:05.540Z,25.76
2018-07-04T09:59:14.199Z,25.74
2018-07-04T10:00:22.844Z,25.76
2018-07-04T10:01:31.498Z,25.78
2018-07-04T10:02:40.157Z,25.7
2018-07-04T10:03:48.812Z,25.78
2018-07-04T10:04:57.467Z,25.73
2018-07-04T10:06:06.112Z,25.71
2018-07-04T10:07:15.034Z,25.74
2018-07-04T10:08:23.682Z,25.77
2018-07-04T10:09:32.418Z,25.71
2018-07-04T10:10:41.821Z,25.83
2018-07-04T10:11:50.482Z,25.83
2018-07-04T10:12:59.129Z,25.98
2018-07-04T10:14:07.794Z,26.13
2018-07-04T10:15:16.661Z,26.18
2018-07-04T10:16:25.608Z,26.27
2018-07-04T10:17:34.461Z,26.3
2018-07-04T10:18:43.219Z,26.39
2018-07-04T10:19:51.916Z,26.52
2018-07-04T10:21:00.870Z,26.64
2018-07-04T10:22:09.484Z,26.66
2018-07-04T10:23:18.326Z,26.74
2018-07-04T10:24:26.999Z,26.89
2018-07-04T10:25:35.697Z,26.91
2018-07-04T10:26:44.356Z,26.97
2018-07-04T10:27:53.000Z,27.08
2018-07-04T10:29:01.710Z,27.1
2018-07-04T10:30:10.315Z,27.15
2018-07-04T10:31:18.970Z,27.25
2018-07-04T10:32:27.625Z,27.3
2018-07-04T10:33:36.376Z,27.28
2018-07-04T10:34:45.030Z,27.34
2018-07-04T10:35:54.063Z,27.35
2018-07-04T10:37:02.745Z,27.34
2018-07-04T10:38:11.445Z,27.38
2018-07-04T10:39:20.134Z,27.28
2018-07-04T10:40:28.783Z,27.26
2018-07-04T10:41:37.436Z,27.26
2018-07-04T10:42:46.100Z,27.4
2018-07-04T10:43:54.748Z,27.41
2018-07-04T10:45:03.407Z,27.34
2018-07-04T10:46:12.052Z,27.35
2018-07-04T10:47:20.714Z,27.41
2018-07-04T10:48:29.363Z,27.45
2018-07-04T10:49:38.018Z,27.44
2018-07-04T10:50:46.664Z,27.43
2018-07-04T10:51:55.329Z,27.45
2018-07-04T10:53:03.982Z,27.58
2018-07-04T10:54:12.638Z,27.61
2018-07-04T10:55:21.284Z,27.73
2018-07-04T10:56:29.940Z,27.71
2018-07-04T10:57:38.600Z,27.66
2018-07-04T10:58:47.783Z,27.73
2018-07-04T10:59:56.437Z,27.81
2018-07-04T11:01:05.082Z,27.9
2018-07-04T11:02:13.741Z,27.94
2018-07-04T11:03:22.393Z,27.97
2018-07-04T11:04:31.073Z,27.94
2018-07-04T11:05:39.707Z,28.01
2018-07-04T11:06:48.369Z,28.1
2018-07-04T11:07:57.016Z,28.06
2018-07-04T11:09:05.684Z,28.1
2018-07-04T11:10:14.592Z,28.09
2018-07-04T11:11:23.296Z,28.13
2018-07-04T11:12:31.903Z,28.08
2018-07-04T11:13:40.568Z,28
2018-07-04T11:14:49.218Z,28
2018-07-04T11:15:57.867Z,27.94
2018-07-04T11:17:06.639Z,28.03
2018-07-04T11:18:15.175Z,28.06
2018-07-04T11:19:23.834Z,28.12
2018-07-04T11:20:32.488Z,28.06
2018-07-04T11:21:41.413Z,28.12
2018-07-04T11:22:50.063Z,28.08
2018-07-04T11:23:58.726Z,28.16
2018-07-04T11:25:07.641Z,28.1
2018-07-04T11:26:16.559Z,28.1
2018-07-04T11:27:25.205Z,28.23
2018-07-04T11:28:34.272Z,28.31
2018-07-04T11:29:42.860Z,28.46
2018-07-04T11:30:51.516Z,28.64
2018-07-04T11:32:00.163Z,28.68
2018-07-04T11:33:08.820Z,28.82
2018-07-04T11:34:17.474Z,28.9
2018-07-04T11:35:26.130Z,29.06
2018-07-04T11:36:34.787Z,29.18
2018-07-04T11:37:43.431Z,29.16
2018-07-04T11:38:52.348Z,29.09
2018-07-04T11:40:01.004Z,29.07
2018-07-04T11:41:09.926Z,29.06
2018-07-04T11:42:18.574Z,29.05
2018-07-04T11:43:27.231Z,29.2
2018-07-04T11:44:36.159Z,29.21
2018-07-04T11:45:45.094Z,29.12
2018-07-04T11:46:53.741Z,29.24
2018-07-04T11:48:02.396Z,29.24
2018-07-04T11:49:11.049Z,29.37
2018-07-04T11:50:19.710Z,29.4
2018-07-04T11:51:28.364Z,29.37
2018-07-04T11:52:37.025Z,29.52
2018-07-04T11:53:45.688Z,29.43
2018-07-04T11:54:54.606Z,29.35
2018-07-04T11:56:03.264Z,29.52
2018-07-04T11:57:11.922Z,29.49
2018-07-04T11:58:20.577Z,29.46
2018-07-04T11:59:29.225Z,29.47
2018-07-04T12:00:37.887Z,29.52
2018-07-04T12:01:46.601Z,29.55
2018-07-04T12:02:55.198Z,29.53
2018-07-04T12:04:03.847Z,29.5
2018-07-04T12:05:12.508Z,29.64
2018-07-04T12:06:21.443Z,29.61
2018-07-04T12:07:30.101Z,29.67
2018-07-04T12:08:38.753Z,29.73
2018-07-04T12:09:47.669Z,29.76
2018-07-04T12:10:56.378Z,29.83
2018-07-04T12:12:04.989Z,29.84
2018-07-04T12:13:13.648Z,29.79
2018-07-04T12:14:22.300Z,29.8
2018-07-04T12:15:31.223Z,29.81
2018-07-04T12:16:40.412Z,29.69
2018-07-04T12:17:49.069Z,29.76
2018-07-04T12:18:57.720Z,29.81
2018-07-04T12:20:06.379Z,29.77
2018-07-04T12:21:15.034Z,29.69
2018-07-04T12:22:23.699Z,29.71
2018-07-04T12:23:32.348Z,29.74
2018-07-04T12:24:41.008Z,29.77
2018-07-04T12:25:49.663Z,29.79
2018-07-04T12:26:58.369Z,29.77
2018-07-04T12:28:07.245Z,29.79
2018-07-04T12:29:16.163Z,29.83
2018-07-04T12:30:25.083Z,29.92
2018-07-04T12:31:33.741Z,29.99
2018-07-04T12:32:42.391Z,30.06
2018-07-04T12:33:51.056Z,30.03
2018-07-04T12:34:59.707Z,30.03
2018-07-04T12:36:08.371Z,30.02
2018-07-04T12:37:17.278Z,29.98
2018-07-04T12:38:25.938Z,29.95
2018-07-04T12:39:34.595Z,29.96
2018-07-04T12:40:43.262Z,29.99
2018-07-04T12:41:52.170Z,29.94
2018-07-04T12:43:01.103Z,29.95
2018-07-04T12:44:09.755Z,30.05
2018-07-04T12:45:18.419Z,30.01
2018-07-04T12:46:27.074Z,29.99
2018-07-04T12:47:35.992Z,30.08
2018-07-04T12:48:44.647Z,30.03
2018-07-04T12:49:53.570Z,30.06
2018-07-04T12:51:02.598Z,30.02
2018-07-04T12:52:11.441Z,30.06
2018-07-04T12:53:20.101Z,30.18
2018-07-04T12:54:28.784Z,30.24
2018-07-04T12:55:38.074Z,30.29
2018-07-04T12:56:46.739Z,30.29
2018-07-04T12:57:55.391Z,30.32
2018-07-04T12:59:04.039Z,30.32
2018-07-04T13:00:12.969Z,30.35
2018-07-04T13:01:21.621Z,30.36
2018-07-04T13:02:30.278Z,30.38
2018-07-04T13:03:38.937Z,30.49
2018-07-04T13:04:47.599Z,30.52
2018-07-04T13:05:56.267Z,30.51
2018-07-04T13:07:04.928Z,30.44
2018-07-04T13:08:13.584Z,30.61
2018-07-04T13:09:22.241Z,30.63
2018-07-04T13:10:31.084Z,30.58
2018-07-04T13:11:40.060Z,30.69
2018-07-04T13:12:48.727Z,30.67
2018-07-04T13:13:57.391Z,30.62
2018-07-04T13:15:06.319Z,30.61
2018-07-04T13:16:15.026Z,30.7
2018-07-04T13:17:23.643Z,30.73
2018-07-04T13:18:32.555Z,30.77
2018-07-04T13:19:41.223Z,30.76
2018-07-04T13:20:49.907Z,30.76
2018-07-04T13:21:58.553Z,30.73
2018-07-04T13:23:07.205Z,30.71
2018-07-04T13:24:16.127Z,30.73
2018-07-04T13:25:24.781Z,30.73
2018-07-04T13:26:33.450Z,30.8
2018-07-04T13:27:42.103Z,30.76
2018-07-04T13:28:51.028Z,30.85
2018-07-04T13:29:59.684Z,30.86
2018-07-04T13:31:08.335Z,30.77
2018-07-04T13:32:17.053Z,30.65
2018-07-04T13:33:26.276Z,30.76
2018-07-04T13:34:35.012Z,30.73
2018-07-04T13:35:43.665Z,30.7
2018-07-04T13:36:52.328Z,30.67
2018-07-04T13:38:00.981Z,30.76
2018-07-04T13:39:09.644Z,30.7
2018-07-04T13:40:18.295Z,30.61
2018-07-04T13:41:26.953Z,30.69
2018-07-04T13:42:35.608Z,30.65
2018-07-04T13:43:44.276Z,30.69
2018-07-04T13:44:52.931Z,30.61
2018-07-04T13:46:01.582Z,30.69
2018-07-04T13:47:10.239Z,30.63
2018-07-04T13:48:19.160Z,30.74
2018-07-04T13:49:27.912Z,30.59
2018-07-04T13:50:36.735Z,30.59
2018-07-04T13:51:45.397Z,30.73
2018-07-04T13:52:54.053Z,30.71
2018-07-04T13:54:02.714Z,30.74
2018-07-04T13:55:11.633Z,30.89
2018-07-04T13:56:20.554Z,30.83
2018-07-04T13:57:28.944Z,30.92
2018-07-04T13:58:37.870Z,30.83
2018-07-04T13:59:46.525Z,30.8
2018-07-04T14:00:55.179Z,30.88
2018-07-04T14:02:03.834Z,30.85
2018-07-04T14:03:12.494Z,30.93
2018-07-04T14:04:21.157Z,30.99
2018-07-04T14:05:29.814Z,30.96
2018-07-04T14:06:38.469Z,31.08
2018-07-04T14:07:47.121Z,31.11
2018-07-04T14:08:56.053Z,31.07
2018-07-04T14:10:04.731Z,31.04
2018-07-04T14:11:13.666Z,31.15
2018-07-04T14:12:22.604Z,31.14
2018-07-04T14:13:31.265Z,31.18
2018-07-04T14:14:39.920Z,31.15
2018-07-04T14:15:48.581Z,31.14
2018-07-04T14:16:57.237Z,31.26
2018-07-04T14:18:05.896Z,31.28
2018-07-04T14:19:14.551Z,31.29
2018-07-04T14:20:23.210Z,31.23
2018-07-04T14:21:32.162Z,31.3
2018-07-04T14:22:40.814Z,31.2
2018-07-04T14:23:49.470Z,31.15
2018-07-04T14:24:58.128Z,31.11
2018-07-04T14:26:06.790Z,31.11
2018-07-04T14:27:15.444Z,31.02
2018-07-04T14:28:24.105Z,30.85
2018-07-04T14:29:32.756Z,30.85
2018-07-04T14:30:41.408Z,30.91
2018-07-04T14:31:50.070Z,30.93
2018-07-04T14:32:58.727Z,30.81
2018-07-04T14:34:07.384Z,30.96
2018-07-04T14:35:16.035Z,30.96
2018-07-04T14:36:24.695Z,31.02
2018-07-04T14:37:33.353Z,31.02
2018-07-04T14:38:42.013Z,31.04
2018-07-04T14:39:50.674Z,30.96
2018-07-04T14:40:59.327Z,31
2018-07-04T14:42:07.983Z,30.96
2018-07-04T14:43:16.640Z,30.91
2018-07-04T14:44:25.298Z,30.91
2018-07-04T14:45:33.951Z,30.95
2018-07-04T14:46:42.731Z,30.93
2018-07-04T14:47:51.629Z,31.02